createdAt,value
2023-05-12T00:00:48.524Z,68.50
2023-05-12T00:01:51.147Z,68.50
2023-05-12T00:02:53.761Z,68.50
2023-05-12T00:03:56.974Z,68.50
2023-05-12T00:04:59.871Z,68.50
2023-05-12T00:06:04.437Z,68.50
2023-05-12T00:07:07.445Z,68.70
2023-05-12T00:08:10.330Z,68.80
2023-05-12T00:09:12.877Z,68.80
2023-05-12T00:10:15.441Z,68.70
2023-05-12T00:11:18.125Z,68.80
2023-05-12T00:12:20.721Z,68.90
2023-05-12T00:13:24.229Z,68.60
2023-05-12T00:14:26.876Z,68.30
2023-05-12T00:15:29.470Z,68.40
2023-05-12T00:16:32.141Z,68.50
2023-05-12T00:17:34.854Z,68.50
2023-05-12T00:18:37.517Z,69.30
2023-05-12T00:19:43.881Z,68.20
2023-05-12T00:20:46.549Z,68.10
2023-05-12T00:21:49.135Z,68.20
2023-05-12T00:22:51.766Z,68.30
2023-05-12T00:23:54.338Z,68.30
2023-05-12T00:24:57.034Z,68.30
2023-05-12T00:25:59.699Z,68.50
2023-05-12T00:27:02.359Z,68.50
2023-05-12T00:28:05.426Z,68.50
2023-05-12T00:29:08.200Z,68.50
2023-05-12T00:30:11.718Z,68.60
2023-05-12T00:31:14.381Z,68.30
2023-05-12T00:32:17.191Z,68.20
2023-05-12T00:33:19.894Z,68.20
2023-05-12T00:34:22.462Z,68.50
2023-05-12T00:35:25.051Z,68.50
2023-05-12T00:36:28.101Z,68.60
2023-05-12T00:37:30.659Z,68.60
2023-05-12T00:38:34.578Z,68.80
2023-05-12T00:39:38.063Z,69.00
2023-05-12T00:40:41.472Z,69.00
2023-05-12T00:41:44.560Z,69.90
2023-05-12T00:42:47.121Z,69.10
2023-05-12T00:43:49.745Z,69.10
2023-05-12T00:44:52.312Z,69.30
2023-05-12T00:45:55.005Z,69.60
2023-05-12T00:46:57.893Z,69.90
2023-05-12T00:48:00.544Z,70.20
2023-05-12T00:49:03.548Z,70.10
2023-05-12T00:50:08.452Z,70.30
2023-05-12T00:51:13.606Z,70.20
2023-05-12T00:52:16.257Z,69.90
2023-05-12T00:53:18.904Z,70.10
2023-05-12T00:54:22.113Z,70.20
2023-05-12T00:55:25.924Z,70.30
2023-05-12T00:56:29.009Z,70.50
2023-05-12T00:57:32.487Z,70.80
2023-05-12T00:58:35.214Z,70.90
2023-05-12T00:59:37.930Z,70.90
2023-05-12T01:00:40.961Z,70.90
2023-05-12T01:01:44.107Z,71.00
2023-05-12T01:02:47.751Z,70.90
2023-05-12T01:03:51.239Z,71.20
2023-05-12T01:04:54.089Z,71.20
2023-05-12T01:06:13.192Z,71.10
2023-05-12T01:07:22.986Z,71.10
2023-05-12T01:08:27.100Z,71.20
2023-05-12T01:09:29.859Z,71.40
2023-05-12T01:10:33.933Z,71.30
2023-05-12T01:11:36.679Z,71.30
2023-05-12T01:12:40.012Z,71.00
2023-05-12T01:13:42.629Z,71.00
2023-05-12T01:14:45.371Z,71.10
2023-05-12T01:15:49.608Z,71.10
2023-05-12T01:16:55.009Z,71.20
2023-05-12T01:18:02.390Z,71.20
2023-05-12T01:19:10.813Z,70.90
2023-05-12T01:20:18.543Z,70.80
2023-05-12T01:21:21.370Z,71.00
2023-05-12T01:22:26.281Z,71.10
2023-05-12T01:23:40.463Z,71.40
2023-05-12T01:24:59.403Z,71.60
2023-05-12T01:26:10.568Z,71.70
2023-05-12T01:27:15.190Z,71.70
2023-05-12T01:28:18.589Z,71.80
2023-05-12T01:29:22.658Z,71.70
2023-05-12T01:30:26.925Z,71.90
2023-05-12T01:31:30.429Z,72.00
2023-05-12T01:32:33.738Z,72.30
2023-05-12T01:33:36.953Z,72.40
2023-05-12T01:34:41.173Z,72.40
2023-05-12T01:35:43.801Z,72.40
2023-05-12T01:36:46.416Z,72.50
2023-05-12T01:37:48.964Z,72.70
2023-05-12T01:38:51.945Z,72.80
2023-05-12T01:39:54.692Z,73.10
2023-05-12T01:40:57.465Z,73.40
2023-05-12T01:42:00.153Z,73.50
2023-05-12T01:43:02.722Z,73.70
2023-05-12T01:44:08.765Z,73.90
2023-05-12T01:45:11.819Z,74.00
2023-05-12T01:46:14.662Z,74.10
2023-05-12T01:47:18.211Z,74.20
2023-05-12T01:48:28.096Z,74.40
2023-05-12T01:49:32.596Z,74.60
2023-05-12T01:50:35.969Z,74.60
2023-05-12T01:51:41.486Z,74.70
2023-05-12T01:52:45.737Z,74.80
2023-05-12T01:53:50.282Z,75.10
2023-05-12T01:54:52.910Z,75.10
2023-05-12T01:55:56.011Z,75.10
2023-05-12T01:57:03.208Z,75.30
2023-05-12T01:58:05.936Z,75.20
2023-05-12T01:59:09.177Z,75.50
2023-05-12T02:00:12.950Z,75.50
2023-05-12T02:01:18.692Z,75.60
2023-05-12T02:02:21.399Z,75.60
2023-05-12T02:03:24.191Z,75.70
2023-05-12T02:04:27.230Z,75.60
2023-05-12T02:05:30.552Z,75.80
2023-05-12T02:06:33.439Z,75.90
2023-05-12T02:07:36.227Z,76.00
2023-05-12T02:08:38.832Z,76.20
2023-05-12T02:09:42.224Z,76.20
2023-05-12T02:10:44.997Z,76.10
2023-05-12T02:11:47.605Z,76.20
2023-05-12T02:12:50.545Z,76.50
2023-05-12T02:13:53.358Z,76.60
2023-05-12T02:14:58.897Z,76.50
2023-05-12T02:16:02.863Z,76.40
2023-05-12T02:17:05.717Z,76.30
2023-05-12T02:18:08.308Z,76.30
2023-05-12T02:19:11.009Z,76.30
2023-05-12T02:20:13.729Z,77.30
2023-05-12T02:21:16.375Z,76.60
2023-05-12T02:22:19.226Z,76.60
2023-05-12T02:23:25.048Z,76.70
2023-05-12T02:24:27.830Z,76.80
2023-05-12T02:25:30.488Z,76.80
2023-05-12T02:26:33.173Z,76.70
2023-05-12T02:27:35.942Z,76.50
2023-05-12T02:28:38.915Z,76.50
2023-05-12T02:29:42.109Z,76.70
2023-05-12T02:30:48.652Z,76.80
2023-05-12T02:31:51.611Z,76.90
2023-05-12T02:32:54.875Z,77.10
2023-05-12T02:33:58.849Z,77.10
2023-05-12T02:35:02.041Z,77.20
2023-05-12T02:36:05.818Z,77.40
2023-05-12T02:37:08.402Z,77.30
2023-05-12T02:38:12.075Z,77.40
2023-05-12T02:39:14.842Z,77.70
2023-05-12T02:40:17.533Z,77.60
2023-05-12T02:41:20.578Z,77.60
2023-05-12T02:42:23.339Z,77.60
2023-05-12T02:43:26.393Z,77.60
2023-05-12T02:44:29.322Z,77.50
2023-05-12T02:45:31.909Z,77.60
2023-05-12T02:46:34.624Z,78.00
2023-05-12T02:47:37.506Z,78.00
2023-05-12T02:48:40.514Z,78.10
2023-05-12T02:49:45.532Z,78.00
2023-05-12T02:50:48.740Z,78.00
2023-05-12T02:51:51.833Z,78.30
2023-05-12T02:52:54.631Z,78.30
2023-05-12T02:53:57.254Z,78.40
2023-05-12T02:54:59.860Z,78.30
2023-05-12T02:56:02.563Z,78.50
2023-05-12T02:57:06.736Z,78.70
2023-05-12T02:58:09.444Z,78.80
2023-05-12T02:59:12.241Z,78.90
2023-05-12T03:00:15.406Z,79.10
2023-05-12T03:01:18.273Z,79.30
2023-05-12T03:02:21.090Z,79.40
2023-05-12T03:03:23.924Z,79.50
2023-05-12T03:04:26.732Z,79.60
2023-05-12T03:05:29.561Z,79.60
2023-05-12T03:06:32.280Z,79.90
2023-05-12T03:07:35.366Z,80.00
2023-05-12T03:08:38.031Z,80.10
2023-05-12T03:09:40.695Z,80.30
2023-05-12T03:10:44.056Z,80.60
2023-05-12T03:11:46.712Z,80.50
2023-05-12T03:12:49.258Z,80.60
2023-05-12T03:13:51.846Z,80.70
2023-05-12T03:14:54.540Z,80.80
2023-05-12T03:16:01.304Z,80.90
2023-05-12T03:17:04.664Z,80.90
2023-05-12T03:18:07.348Z,80.80
2023-05-12T03:19:10.089Z,81.00
2023-05-12T03:20:13.005Z,81.10
2023-05-12T03:21:15.579Z,81.10
2023-05-12T03:22:18.568Z,81.10
2023-05-12T03:23:21.413Z,81.10
2023-05-12T03:24:24.034Z,81.20
2023-05-12T03:25:27.016Z,81.40
2023-05-12T03:26:29.589Z,81.40
2023-05-12T03:27:33.105Z,81.40
2023-05-12T03:28:35.844Z,81.40
2023-05-12T03:29:38.526Z,81.60
2023-05-12T03:30:41.081Z,81.80
2023-05-12T03:31:43.984Z,81.90
2023-05-12T03:32:47.438Z,82.00
2023-05-12T03:33:50.080Z,82.00
2023-05-12T03:34:52.619Z,82.20
2023-05-12T03:35:56.720Z,82.20
2023-05-12T03:36:59.652Z,82.30
2023-05-12T03:38:02.246Z,82.50
2023-05-12T03:39:05.083Z,82.60
2023-05-12T03:40:09.698Z,82.60
2023-05-12T03:41:12.458Z,82.80
2023-05-12T03:42:15.532Z,82.80
2023-05-12T03:43:18.373Z,82.90
2023-05-12T03:44:21.300Z,83.10
2023-05-12T03:45:24.024Z,83.30
2023-05-12T03:46:26.738Z,83.50
2023-05-12T03:47:29.455Z,83.60
2023-05-12T03:48:32.440Z,83.50
2023-05-12T03:49:35.066Z,83.60
2023-05-12T03:50:37.690Z,83.70
2023-05-12T03:51:41.253Z,84.00
2023-05-12T03:52:43.884Z,84.00
2023-05-12T03:53:47.836Z,84.10
2023-05-12T03:54:51.031Z,84.10
2023-05-12T03:55:53.650Z,84.10
2023-05-12T03:56:56.361Z,84.10
2023-05-12T03:57:59.278Z,84.10
2023-05-12T03:59:02.012Z,84.10
2023-05-12T04:00:05.976Z,84.30
2023-05-12T04:01:15.331Z,84.20
2023-05-12T04:02:18.032Z,84.10
2023-05-12T04:03:21.575Z,84.10
2023-05-12T04:04:24.341Z,84.20
2023-05-12T04:05:27.233Z,84.00
2023-05-12T04:06:30.300Z,84.00
2023-05-12T04:07:33.361Z,83.80
2023-05-12T04:08:35.961Z,83.60
2023-05-12T04:09:38.615Z,83.60
2023-05-12T04:10:42.304Z,83.70
2023-05-12T04:11:44.852Z,83.30
2023-05-12T04:12:47.498Z,83.20
2023-05-12T04:13:51.810Z,83.00
2023-05-12T04:14:54.404Z,83.00
2023-05-12T04:15:58.437Z,83.10
2023-05-12T04:17:01.000Z,83.10
2023-05-12T04:18:04.354Z,83.20
2023-05-12T04:19:07.657Z,83.00
2023-05-12T04:20:11.656Z,82.50
2023-05-12T04:21:14.700Z,82.40
2023-05-12T04:22:17.469Z,82.30
2023-05-12T04:23:20.082Z,82.30
2023-05-12T04:24:25.096Z,82.20
2023-05-12T04:25:27.711Z,82.30
2023-05-12T04:26:30.455Z,82.10
2023-05-12T04:27:33.174Z,82.00
2023-05-12T04:28:37.077Z,81.90
2023-05-12T04:29:39.739Z,82.00
2023-05-12T04:30:43.132Z,81.60
2023-05-12T04:31:45.832Z,81.00
2023-05-12T04:32:49.460Z,80.90
2023-05-12T04:33:52.617Z,81.80
2023-05-12T04:34:56.677Z,81.00
2023-05-12T04:35:59.800Z,81.10
2023-05-12T04:37:02.409Z,81.30
2023-05-12T04:38:05.918Z,81.40
2023-05-12T04:39:09.685Z,81.40
2023-05-12T04:40:12.729Z,81.30
2023-05-12T04:41:15.361Z,81.30
2023-05-12T04:42:18.229Z,81.30
2023-05-12T04:44:26.411Z,81.30
2023-05-12T04:45:29.028Z,81.30
2023-05-12T04:46:32.409Z,81.20
2023-05-12T04:47:36.104Z,81.20
2023-05-12T04:48:42.073Z,81.30
2023-05-12T04:49:45.244Z,81.50
2023-05-12T04:50:50.114Z,81.60
2023-05-12T04:51:52.684Z,81.60
2023-05-12T04:52:55.350Z,81.50
2023-05-12T04:53:58.189Z,81.30
2023-05-12T04:55:01.025Z,81.10
2023-05-12T04:56:04.072Z,81.00
2023-05-12T04:57:11.665Z,81.00
2023-05-12T04:58:14.328Z,81.20
2023-05-12T04:59:16.952Z,81.00
2023-05-12T05:00:21.223Z,81.00
2023-05-12T05:01:24.018Z,80.60
2023-05-12T05:02:28.039Z,81.00
2023-05-12T05:03:31.901Z,80.80
2023-05-12T05:04:35.524Z,80.50
2023-05-12T05:05:38.839Z,80.10
2023-05-12T05:06:41.686Z,80.00
2023-05-12T05:07:44.451Z,80.10
2023-05-12T05:08:47.655Z,80.20
2023-05-12T05:09:51.058Z,79.40
2023-05-12T05:10:53.904Z,78.50
2023-05-12T05:11:56.502Z,77.90
2023-05-12T05:12:59.311Z,77.70
2023-05-12T05:14:02.547Z,77.50
2023-05-12T05:15:05.821Z,77.10
2023-05-12T05:16:08.697Z,76.70
2023-05-12T05:17:12.404Z,76.40
2023-05-12T05:18:16.221Z,76.70
2023-05-12T05:19:23.306Z,76.60
2023-05-12T05:20:34.436Z,76.50
2023-05-12T05:21:37.497Z,76.10
2023-05-12T05:22:40.991Z,75.80
2023-05-12T05:23:43.958Z,75.80
2023-05-12T05:24:46.606Z,75.50
2023-05-12T05:25:49.239Z,75.50
2023-05-12T05:26:51.826Z,75.60
2023-05-12T05:27:55.813Z,75.30
2023-05-12T05:28:59.095Z,74.70
2023-05-12T05:30:02.048Z,73.80
2023-05-12T05:31:06.503Z,73.30
2023-05-12T05:32:09.132Z,73.50
2023-05-12T05:33:13.350Z,73.90
2023-05-12T05:34:16.606Z,73.60
2023-05-12T05:35:19.606Z,73.80
2023-05-12T05:36:26.517Z,74.00
2023-05-12T05:37:29.508Z,74.00
2023-05-12T05:38:32.790Z,73.70
2023-05-12T05:39:35.582Z,73.60
2023-05-12T05:40:51.547Z,72.70
2023-05-12T05:41:56.158Z,73.00
2023-05-12T05:42:58.849Z,72.60
2023-05-12T05:44:02.216Z,72.70
2023-05-12T05:45:06.469Z,72.10
2023-05-12T05:46:09.359Z,71.80
2023-05-12T05:47:12.131Z,71.90
2023-05-12T05:48:14.788Z,72.10
2023-05-12T05:49:17.468Z,72.60
2023-05-12T05:50:20.230Z,72.60
2023-05-12T05:51:23.271Z,72.80
2023-05-12T05:52:26.124Z,72.10
2023-05-12T05:53:29.143Z,71.90
2023-05-12T05:54:31.760Z,72.10
2023-05-12T05:55:35.265Z,72.20
2023-05-12T05:56:37.914Z,72.00
2023-05-12T05:57:40.547Z,71.80
2023-05-12T05:58:43.319Z,72.00
2023-05-12T05:59:45.991Z,72.30
2023-05-12T06:00:48.565Z,72.90
2023-05-12T06:01:51.207Z,71.80
2023-05-12T06:02:53.924Z,71.60
2023-05-12T06:03:57.672Z,71.70
2023-05-12T06:05:00.681Z,71.30
2023-05-12T06:06:03.751Z,71.80
2023-05-12T06:07:06.343Z,71.80
2023-05-12T06:08:13.340Z,71.70
2023-05-12T06:09:16.597Z,71.20
2023-05-12T06:10:21.583Z,70.70
2023-05-12T06:11:24.502Z,70.70
2023-05-12T06:12:27.094Z,71.00
2023-05-12T06:13:29.673Z,70.00
2023-05-12T06:14:32.281Z,70.00
2023-05-12T06:15:34.929Z,70.50
2023-05-12T06:16:37.846Z,70.30
2023-05-12T06:17:40.418Z,70.40
2023-05-12T06:18:43.993Z,70.60
2023-05-12T06:19:49.691Z,70.90
2023-05-12T06:20:52.225Z,71.10
2023-05-12T06:21:55.513Z,71.00
2023-05-12T06:22:58.150Z,71.10
2023-05-12T06:24:00.851Z,70.80
2023-05-12T06:25:03.923Z,70.90
2023-05-12T06:26:07.922Z,71.20
2023-05-12T06:27:11.341Z,71.10
2023-05-12T06:28:13.982Z,70.90
2023-05-12T06:29:16.889Z,71.30
2023-05-12T06:30:19.696Z,71.50
2023-05-12T06:31:31.196Z,71.70
2023-05-12T06:32:34.059Z,71.40
2023-05-12T06:33:37.218Z,70.90
2023-05-12T06:34:39.902Z,70.70
2023-05-12T06:35:52.265Z,71.50
2023-05-12T06:36:55.121Z,72.00
2023-05-12T06:37:57.982Z,71.90
2023-05-12T06:39:00.954Z,71.50
2023-05-12T06:40:04.157Z,71.40
2023-05-12T06:41:06.878Z,71.10
2023-05-12T06:42:10.148Z,70.90
2023-05-12T06:43:17.168Z,71.00
2023-05-12T06:44:21.368Z,71.20
2023-05-12T06:45:27.853Z,71.50
2023-05-12T06:46:30.534Z,71.20
2023-05-12T06:47:33.987Z,70.80
2023-05-12T06:48:36.660Z,70.80
2023-05-12T06:49:39.391Z,70.70
2023-05-12T06:50:42.444Z,70.50
2023-05-12T06:51:45.422Z,69.90
2023-05-12T06:52:48.303Z,70.20
2023-05-12T06:53:51.190Z,70.40
2023-05-12T06:54:53.825Z,70.60
2023-05-12T06:55:56.759Z,69.40
2023-05-12T06:56:59.877Z,68.70
2023-05-12T06:58:03.283Z,68.80
2023-05-12T06:59:06.099Z,69.60
2023-05-12T07:00:10.819Z,68.90
2023-05-12T07:01:13.507Z,68.60
2023-05-12T07:02:17.099Z,68.60
2023-05-12T07:03:19.716Z,68.70
2023-05-12T07:04:22.780Z,67.70
2023-05-12T07:05:25.876Z,67.50
2023-05-12T07:06:28.615Z,66.90
2023-05-12T07:07:31.203Z,68.00
2023-05-12T07:08:33.874Z,67.90
2023-05-12T07:09:36.535Z,67.60
2023-05-12T07:10:40.070Z,68.30
2023-05-12T07:11:42.879Z,67.60
2023-05-12T07:12:45.622Z,67.10
2023-05-12T07:13:50.300Z,67.40
2023-05-12T07:14:53.152Z,67.00
2023-05-12T07:15:55.843Z,66.70
2023-05-12T07:16:58.600Z,66.60
2023-05-12T07:18:01.237Z,66.30
2023-05-12T07:19:05.954Z,66.50
2023-05-12T07:20:10.038Z,66.70
2023-05-12T07:21:13.410Z,66.60
2023-05-12T07:22:16.236Z,66.10
2023-05-12T07:23:18.765Z,64.50
2023-05-12T07:24:21.367Z,64.30
2023-05-12T07:25:24.459Z,64.80
2023-05-12T07:26:29.114Z,65.00
2023-05-12T07:27:31.854Z,64.50
2023-05-12T07:28:36.600Z,64.60
2023-05-12T07:29:39.267Z,64.40
2023-05-12T07:30:41.834Z,64.60
2023-05-12T07:31:44.656Z,64.70
2023-05-12T07:32:47.508Z,64.90
2023-05-12T07:33:50.133Z,63.50
2023-05-12T07:34:53.400Z,63.70
2023-05-12T07:35:56.646Z,63.90
2023-05-12T07:37:01.582Z,63.50
2023-05-12T07:38:04.547Z,63.10
2023-05-12T07:39:07.155Z,61.90
2023-05-12T07:40:11.053Z,62.40
2023-05-12T07:41:15.512Z,62.70
2023-05-12T07:42:18.634Z,63.20
2023-05-12T07:43:21.493Z,62.50
2023-05-12T07:44:24.702Z,61.60
2023-05-12T07:45:27.343Z,61.30
2023-05-12T07:46:29.949Z,60.60
2023-05-12T07:47:32.536Z,58.60
2023-05-12T07:48:40.002Z,58.50
2023-05-12T07:49:42.756Z,57.70
2023-05-12T07:50:45.746Z,57.50
2023-05-12T07:51:48.374Z,57.40
2023-05-12T07:52:53.314Z,57.60
2023-05-12T07:53:56.555Z,57.30
2023-05-12T07:54:59.350Z,57.90
2023-05-12T07:56:02.808Z,57.80
2023-05-12T07:57:05.862Z,58.50
2023-05-12T07:58:08.465Z,59.20
2023-05-12T07:59:12.164Z,59.10
2023-05-12T08:00:15.796Z,59.00
2023-05-12T08:01:18.382Z,59.20
2023-05-12T08:02:21.148Z,58.70
2023-05-12T08:03:23.864Z,58.40
2023-05-12T08:04:26.520Z,58.30
2023-05-12T08:05:29.185Z,56.10
2023-05-12T08:06:31.774Z,55.80
2023-05-12T08:07:34.501Z,54.70
2023-05-12T08:08:37.165Z,54.40
2023-05-12T08:09:39.735Z,55.10
2023-05-12T08:10:45.054Z,55.80
2023-05-12T08:11:49.407Z,52.70
2023-05-12T08:12:53.928Z,51.10
2023-05-12T08:13:56.533Z,49.40
2023-05-12T08:14:59.932Z,49.60
2023-05-12T08:16:02.764Z,50.30
2023-05-12T08:17:05.663Z,50.80
2023-05-12T08:18:08.419Z,49.80
2023-05-12T08:19:14.466Z,49.20
2023-05-12T08:20:17.113Z,49.00
2023-05-12T08:21:19.744Z,49.50
2023-05-12T08:22:22.374Z,48.90
2023-05-12T08:23:24.971Z,47.90
2023-05-12T08:24:27.586Z,48.40
2023-05-12T08:25:30.727Z,47.80
2023-05-12T08:26:33.390Z,46.80
2023-05-12T08:27:36.168Z,47.30
2023-05-12T08:28:39.273Z,48.00
2023-05-12T08:29:41.905Z,48.70
2023-05-12T08:30:45.569Z,49.10
2023-05-12T08:31:48.520Z,49.50
2023-05-12T08:32:51.181Z,47.30
2023-05-12T08:34:09.141Z,46.70
2023-05-12T08:35:12.813Z,47.70
2023-05-12T08:36:15.666Z,48.60
2023-05-12T08:37:18.329Z,48.40
2023-05-12T08:38:21.366Z,45.70
2023-05-12T08:39:24.300Z,44.60
2023-05-12T08:40:30.566Z,45.10
2023-05-12T08:41:53.300Z,46.40
2023-05-12T08:43:26.403Z,46.40
2023-05-12T08:44:30.228Z,44.30
2023-05-12T08:45:34.530Z,44.70
2023-05-12T08:46:37.251Z,44.50
2023-05-12T08:47:41.914Z,43.30
2023-05-12T08:48:47.615Z,44.60
2023-05-12T08:50:00.859Z,44.90
2023-05-12T08:51:07.470Z,45.50
2023-05-12T08:52:12.046Z,44.80
2023-05-12T08:53:18.730Z,45.20
2023-05-12T08:54:22.776Z,45.60
2023-05-12T08:55:31.095Z,46.50
2023-05-12T08:57:45.793Z,47.20
2023-05-12T08:58:48.943Z,47.10
2023-05-12T08:59:56.678Z,46.70
2023-05-12T09:01:01.701Z,47.00
2023-05-12T09:02:05.741Z,47.90
2023-05-12T09:03:08.685Z,46.90
2023-05-12T09:04:11.304Z,46.70
2023-05-12T09:05:13.915Z,44.40
2023-05-12T09:06:17.247Z,45.10
2023-05-12T09:07:20.507Z,45.80
2023-05-12T09:08:25.326Z,44.80
2023-05-12T09:09:29.811Z,45.40
2023-05-12T09:10:35.632Z,45.40
2023-05-12T09:11:38.781Z,44.50
2023-05-12T09:12:44.266Z,45.70
2023-05-12T09:14:06.491Z,44.30
2023-05-12T09:15:16.178Z,45.40
2023-05-12T09:16:24.130Z,46.50
2023-05-12T09:17:27.024Z,45.50
2023-05-12T09:18:54.459Z,45.80
2023-05-12T09:19:57.186Z,45.60
2023-05-12T09:21:01.305Z,46.60
2023-05-12T09:22:04.021Z,46.80
2023-05-12T09:23:22.102Z,46.90
2023-05-12T09:24:54.322Z,45.70
2023-05-12T09:26:03.131Z,44.00
2023-05-12T09:27:11.200Z,44.50
2023-05-12T09:28:15.364Z,45.40
2023-05-12T09:29:30.820Z,46.10
2023-05-12T09:30:38.660Z,45.90
2023-05-12T09:31:53.365Z,45.60
2023-05-12T09:33:15.579Z,44.20
2023-05-12T09:34:19.430Z,43.40
2023-05-12T09:35:22.333Z,43.90
2023-05-12T09:36:25.830Z,44.40
2023-05-12T09:37:33.236Z,44.60
2023-05-12T09:38:36.027Z,45.10
2023-05-12T09:39:38.948Z,45.10
2023-05-12T09:40:43.199Z,45.10
2023-05-12T09:41:46.158Z,45.30
2023-05-12T09:42:49.868Z,45.00
2023-05-12T09:43:56.274Z,45.00
2023-05-12T09:45:12.033Z,45.20
2023-05-12T09:46:15.066Z,45.40
2023-05-12T09:47:17.957Z,45.70
2023-05-12T09:48:21.357Z,46.20
2023-05-12T09:49:28.930Z,46.10
2023-05-12T09:50:40.859Z,46.30
2023-05-12T09:51:59.526Z,45.00
2023-05-12T09:53:02.693Z,44.70
2023-05-12T09:54:07.601Z,44.70
2023-05-12T09:55:14.130Z,45.50
2023-05-12T09:56:18.002Z,45.40
2023-05-12T09:57:23.151Z,45.30
2023-05-12T09:58:28.358Z,45.40
2023-05-12T09:59:33.930Z,45.40
2023-05-12T10:00:58.663Z,46.10
2023-05-12T10:02:05.526Z,46.20
2023-05-12T10:03:15.371Z,46.00
2023-05-12T10:04:18.105Z,44.90
2023-05-12T10:05:22.317Z,45.60
2023-05-12T10:06:33.881Z,46.80
2023-05-12T10:07:37.411Z,44.80
2023-05-12T10:09:03.715Z,45.00
2023-05-12T10:10:08.159Z,44.00
2023-05-12T10:11:11.435Z,44.70
2023-05-12T10:12:14.347Z,45.00
2023-05-12T10:13:17.972Z,44.60
2023-05-12T10:14:23.141Z,44.40
2023-05-12T10:15:27.242Z,44.70
2023-05-12T10:16:30.558Z,44.50
2023-05-12T10:17:39.576Z,45.00
2023-05-12T10:18:46.825Z,44.50
2023-05-12T10:19:50.392Z,44.90
2023-05-12T10:20:54.015Z,45.00
2023-05-12T10:21:58.364Z,44.90
2023-05-12T10:23:02.267Z,43.70
2023-05-12T10:24:05.248Z,44.90
2023-05-12T10:25:09.724Z,45.10
2023-05-12T10:26:13.726Z,44.50
2023-05-12T10:27:17.402Z,44.30
2023-05-12T10:28:20.674Z,43.80
2023-05-12T10:29:30.325Z,43.50
2023-05-12T10:30:33.948Z,42.50
2023-05-12T10:31:38.534Z,41.90
2023-05-12T10:32:41.694Z,41.90
2023-05-12T10:33:44.337Z,41.60
2023-05-12T10:34:46.937Z,42.60
2023-05-12T10:35:52.066Z,43.80
2023-05-12T10:36:54.683Z,43.40
2023-05-12T10:38:11.959Z,42.60
2023-05-12T10:39:17.708Z,42.50
2023-05-12T10:40:26.808Z,41.60
2023-05-12T10:41:34.585Z,42.10
2023-05-12T10:42:43.304Z,42.60
2023-05-12T10:43:50.591Z,42.80
2023-05-12T10:44:56.709Z,43.30
2023-05-12T10:46:19.406Z,43.90
2023-05-12T10:47:29.437Z,44.20
2023-05-12T10:48:32.084Z,44.10
2023-05-12T10:49:41.998Z,44.20
2023-05-12T10:50:54.287Z,42.70
2023-05-12T10:52:01.028Z,42.40
2023-05-12T10:53:03.989Z,42.20
2023-05-12T10:54:08.303Z,41.30
2023-05-12T10:55:14.406Z,41.70
2023-05-12T10:56:28.552Z,41.50
2023-05-12T10:57:33.420Z,42.00
2023-05-12T10:58:36.830Z,42.60
2023-05-12T10:59:57.716Z,42.30
2023-05-12T11:01:07.096Z,43.40
2023-05-12T11:02:17.753Z,42.50
2023-05-12T11:03:25.842Z,42.50
2023-05-12T11:04:53.110Z,42.10
2023-05-12T11:06:04.931Z,41.60
2023-05-12T11:07:10.276Z,41.10
2023-05-12T11:08:14.199Z,41.60
2023-05-12T11:09:17.731Z,42.50
2023-05-12T11:10:21.934Z,43.60
2023-05-12T11:11:25.209Z,44.50
2023-05-12T11:12:33.166Z,43.20
2023-05-12T11:13:36.083Z,43.40
2023-05-12T11:14:40.893Z,44.40
2023-05-12T11:15:45.085Z,43.20
2023-05-12T11:16:47.781Z,42.90
2023-05-12T11:17:50.373Z,43.30
2023-05-12T11:19:04.038Z,43.70
2023-05-12T11:20:09.791Z,42.40
2023-05-12T11:21:12.466Z,43.30
2023-05-12T11:22:22.052Z,45.10
2023-05-12T11:23:28.732Z,42.70
2023-05-12T11:24:31.314Z,42.30
2023-05-12T11:25:34.279Z,43.00
2023-05-12T11:26:36.938Z,43.50
2023-05-12T11:27:42.568Z,43.50
2023-05-12T11:28:45.264Z,43.00
2023-05-12T11:30:01.903Z,43.50
2023-05-12T11:31:05.014Z,43.80
2023-05-12T11:32:10.289Z,44.60
2023-05-12T11:33:13.850Z,44.70
2023-05-12T11:34:20.431Z,44.30
2023-05-12T11:35:23.232Z,43.90
2023-05-12T11:36:26.083Z,42.80
2023-05-12T11:37:28.688Z,42.30
2023-05-12T11:38:31.695Z,41.70
2023-05-12T11:39:34.369Z,41.60
2023-05-12T11:40:41.297Z,42.00
2023-05-12T11:41:44.863Z,42.00
2023-05-12T11:42:51.694Z,43.10
2023-05-12T11:43:54.356Z,43.50
2023-05-12T11:44:56.948Z,43.60
2023-05-12T11:45:59.955Z,43.50
2023-05-12T11:47:13.318Z,41.40
2023-05-12T11:48:16.958Z,41.20
2023-05-12T11:49:19.529Z,42.10
2023-05-12T11:50:25.157Z,42.90
2023-05-12T11:51:27.997Z,42.60
2023-05-12T11:52:30.596Z,43.40
2023-05-12T11:53:35.416Z,43.10
2023-05-12T11:54:38.121Z,42.70
2023-05-12T11:55:56.862Z,42.00
2023-05-12T11:57:01.304Z,42.70
2023-05-12T11:58:04.571Z,42.70
2023-05-12T11:59:07.485Z,42.70
2023-05-12T12:00:10.735Z,42.90
2023-05-12T12:01:13.311Z,43.40
2023-05-12T12:02:21.691Z,43.50
2023-05-12T12:03:25.318Z,42.80
2023-05-12T12:04:41.899Z,43.00
2023-05-12T12:06:02.719Z,42.00
2023-05-12T12:07:06.873Z,41.70
2023-05-12T12:08:13.511Z,42.60
2023-05-12T12:09:16.113Z,42.70
2023-05-12T12:10:19.459Z,42.00
2023-05-12T12:11:24.249Z,42.10
2023-05-12T12:12:26.819Z,42.00
2023-05-12T12:13:29.515Z,41.00
2023-05-12T12:14:33.537Z,40.90
2023-05-12T12:15:36.276Z,41.00
2023-05-12T12:16:39.126Z,41.10
2023-05-12T12:17:41.788Z,42.10
2023-05-12T12:18:44.533Z,41.60
2023-05-12T12:19:47.832Z,42.00
2023-05-12T12:20:50.680Z,41.40
2023-05-12T12:21:53.754Z,42.00
2023-05-12T12:22:56.390Z,43.30
2023-05-12T12:23:59.115Z,41.90
2023-05-12T12:25:03.302Z,41.90
2023-05-12T12:26:05.879Z,42.60
2023-05-12T12:27:08.453Z,43.40
2023-05-12T12:28:11.081Z,43.70
2023-05-12T12:29:13.857Z,43.90
2023-05-12T12:30:17.125Z,43.50
2023-05-12T12:31:19.690Z,43.70
2023-05-12T12:32:22.559Z,43.60
2023-05-12T12:33:25.201Z,42.40
2023-05-12T12:34:27.762Z,42.10
2023-05-12T12:35:30.618Z,41.30
2023-05-12T12:36:33.652Z,41.80
2023-05-12T12:37:36.269Z,42.20
2023-05-12T12:38:39.117Z,43.00
2023-05-12T12:39:41.692Z,42.30
2023-05-12T12:40:44.279Z,41.70
2023-05-12T12:41:48.174Z,42.30
2023-05-12T12:42:50.786Z,42.10
2023-05-12T12:43:53.537Z,42.60
2023-05-12T12:44:56.138Z,42.60
2023-05-12T12:45:58.852Z,43.50
2023-05-12T12:47:01.551Z,42.70
2023-05-12T12:48:04.483Z,42.40
2023-05-12T12:49:07.371Z,42.20
2023-05-12T12:50:10.689Z,42.20
2023-05-12T12:51:13.685Z,41.60
2023-05-12T12:52:16.309Z,41.40
2023-05-12T12:53:18.891Z,41.50
2023-05-12T12:54:21.713Z,41.20
2023-05-12T12:55:24.452Z,41.10
2023-05-12T12:56:27.086Z,41.30
2023-05-12T12:57:29.726Z,40.40
2023-05-12T12:58:32.691Z,40.80
2023-05-12T12:59:35.301Z,41.20
2023-05-12T13:00:38.040Z,41.80
2023-05-12T13:01:40.709Z,41.70
2023-05-12T13:02:43.462Z,42.00
2023-05-12T13:03:46.092Z,41.20
2023-05-12T13:04:48.652Z,40.70
2023-05-12T13:05:51.310Z,41.00
2023-05-12T13:06:53.917Z,40.70
2023-05-12T13:07:56.513Z,40.70
2023-05-12T13:08:59.111Z,41.10
2023-05-12T13:10:02.014Z,41.40
2023-05-12T13:11:04.668Z,42.10
2023-05-12T13:12:08.032Z,42.40
2023-05-12T13:13:13.380Z,43.00
2023-05-12T13:14:16.218Z,43.00
2023-05-12T13:15:19.646Z,42.60
2023-05-12T13:16:23.278Z,40.90
2023-05-12T13:17:26.470Z,40.10
2023-05-12T13:18:29.170Z,40.10
2023-05-12T13:19:31.970Z,40.50
2023-05-12T13:20:34.569Z,41.00
2023-05-12T13:21:37.817Z,40.50
2023-05-12T13:22:44.328Z,40.60
2023-05-12T13:23:46.960Z,41.00
2023-05-12T13:24:49.553Z,41.00
2023-05-12T13:25:52.206Z,40.90
2023-05-12T13:26:54.810Z,41.30
2023-05-12T13:27:57.388Z,42.30
2023-05-12T13:28:59.996Z,42.90
2023-05-12T13:30:04.932Z,42.70
2023-05-12T13:31:07.920Z,42.20
2023-05-12T13:32:11.136Z,42.40
2023-05-12T13:33:13.879Z,41.70
2023-05-12T13:34:16.676Z,41.30
2023-05-12T13:35:19.618Z,41.50
2023-05-12T13:36:22.410Z,41.30
2023-05-12T13:37:25.120Z,41.20
2023-05-12T13:38:27.683Z,39.20
2023-05-12T13:39:30.266Z,40.00
2023-05-12T13:40:33.006Z,40.10
2023-05-12T13:41:35.936Z,40.20
2023-05-12T13:42:38.907Z,39.80
2023-05-12T13:43:41.460Z,40.30
2023-05-12T13:44:44.048Z,40.00
2023-05-12T13:45:46.774Z,40.00
2023-05-12T13:46:49.427Z,40.30
2023-05-12T13:47:52.074Z,41.30
2023-05-12T13:48:54.739Z,41.40
2023-05-12T13:49:57.385Z,42.20